SVMIMROC

Guest
Details From SVMI - Caracas Simon Bolivar Intl
To MROC - San Jose Juan Santamaria Intl
Flight Number -
Tags Generated
Created
Modified
Stats Distance 1,019 nm / 1,887 km
Max Altitude 0 ft / 0 m
Waypoints 8
Social Downloads 2
Likes 0
Share VATSIM

Download

Looking for another format? Having issues loading an existing format? Contact us
Advertisement - Login to hide

Notes

Generated

Route

SVMI LIXIL GIDOX AKNIL BARRA PADUR R1514 MROC

ID Type Via Altitude Latitude Longitude Leg Dist Tot Dist Heading (true) Name
O SVMI APT - 0 ft / 0 m 10.59869˚ -66.99768˚ - 0 nm - -
LIXIL FIX - 0 ft / 0 m 10.54975˚ -68.95036˚ 115 nm 115 nm 269° / 268° -
GIDOX FIX - 0 ft / 0 m 10.45142˚ -71.16703˚ 131 nm 246 nm 268° / 267° -
AKNIL FIX - 0 ft / 0 m 10.38750˚ -72.95417˚ 105 nm 351 nm 268° / 268° -
BARRA FIX - 0 ft / 0 m 10.43972˚ -74.42722˚ 87 nm 439 nm 272° / 272° -
PADUR FIX - 0 ft / 0 m 9.97861˚ -82.59750˚ 483 nm 922 nm 267° / 266° -
R1514 FIX - 0 ft / 0 m 9.98900˚ -84.22186˚ 96 nm 1018 nm 271° / 270° -
O MROC APT - 0 ft / 0 m 9.98900˚ -84.22186˚ 0 nm 1018 nm 0° / 180° -

Altitude Profile

Advertisement - Login to hide

Weather


0- 5 10 15 20 25 30 35+ Temperature / ° C

Clouds and Precipitation
Forecast for 2017-12-16 06:00 UTC. Updated 34 minutes ago

Ground ~20,000 ft ~40,000 ft Winds

SVMI

Details ICAO SVMI (CCS)
Name Caracas Simon Bolivar Intl
Region Venezuela
Timezone America/Caracas (UTC-4.0)
Stats Elevation 235 ft / 72 m (AMSL)
Location 10.603119° -66.990585°
Runways 2
Magnetic Variation 12.289° W

METAR

SVMI 160300Z 00000KT 9999 FEW016 25/22 Q1012

Decode

TAF

Not found

Departure Runways

ID Width Length Bearing (true) Bearing (mag) Surface Threshold Offset Overrun Length
09 145 ft / 44 m 9,825 ft / 2,995 m 75.92° 88.21° Asphalt 0 ft / 0 m 0 ft / 0 m
10 148 ft / 45 m 11,472 ft / 3,497 m 88.14° 100.43° Asphalt 0 ft / 0 m 200 ft / 61 m
27 145 ft / 44 m 9,825 ft / 2,995 m 255.92° 268.21° Asphalt 0 ft / 0 m 0 ft / 0 m
28 148 ft / 45 m 11,472 ft / 3,497 m 268.15° 280.44° Asphalt 0 ft / 0 m 200 ft / 61 m

MROC

Details ICAO MROC (SJO)
Name San Jose Juan Santamaria Intl
Region Costa Rica
Timezone America/Costa_Rica (UTC-6.0)
Stats Elevation 3,021 ft / 921 m (AMSL)
Location 9.993927° -84.208884°
Runways 1
Magnetic Variation 1.719° W

METAR

MROC 160300Z 08006KT 040V120 CAVOK 20/13 A3000 NOSIG

Decode

TAF

Not found

Destination Runways

ID Width Length Bearing (true) Bearing (mag) Surface Threshold Offset Overrun Length
07 151 ft / 46 m 9,994 ft / 3,046 m 68.91° 70.63° Asphalt 0 ft / 0 m 200 ft / 61 m
25 151 ft / 46 m 9,994 ft / 3,046 m 248.92° 250.64° Asphalt 1,969 ft / 600 m 200 ft / 61 m

Approach Navaids

Runway Type Ident Frequency Range Bearing (true) Bearing (mag) Slope Elevation
07 Localiser IOCO 109.50 MHz 18 nm / 33 km 68.89° 70.61° - 930 ft / 283 m (AMSL)
07 Glidescope IOCO 109.50 MHz 10 nm / 19 km 68.91° 70.63° 3.00° 930 ft / 283 m (AMSL)
07 DME IOCO 109.50 MHz 18 nm / 33 km - - - 930 ft / 283 m (AMSL)

Popular Alternatives